»·PEaware :: UAL1151 KDEN-KABQ

UAL1151 :: KDEN-KABQ

FLIGHT INFORMATION

Flight Status: Arrived
Operator:
United Airlines
More flights by this operator :: More flights under this callsign
Pilot: Mike C. (16705)
Aircraft: BOEING 737-800
(B738)
More flights by this aircraft type
Origin: KDEN Denver Intl
United States
Destination: KABQ Albuquerque Intl Sunport
United States
More flights between these airports :: More routes between these airports
Route: SPAZZ3 ZAPAA DATME SNDIA3
File this flight plan on PilotEdge
Remarks: PBN / A1B1C1D1S1S2 DOF / 180415 REG / N838NN EET / KZAB0034 PER / C RMK / TCAS SIMBRIEF
Altitude:
(Current/Filed)
36,000ft
Speed:
(Current/Filed)
449kts
Departed: 15-Apr-18 02:23 PM
Arrived: 15-Apr-18 03:16 PM
Distance/Time
Traveled:
303nm/0:53
Distance/Time
To Go:
Arrived

Flight Plot

Page will automatically refresh every two minutes.


Map Options




Map Legend


Flown Route
Filed Route
Departure Airport
Arrival Airport
Navaid (VOR, NDB)
Fix

Horizontal Profiles

Position Reports

Time Latitude Longitude Heading Altitude Ground
Speed
15-Apr-18 13:38 39.859424 -104.679163 180 5439ft 0kts
15-Apr-18 13:39 39.859424 -104.679163 180 5439ft 0kts
15-Apr-18 13:40 39.859424 -104.679163 180 5439ft 0kts
15-Apr-18 13:41 39.859424 -104.679163 180 5439ft 0kts
15-Apr-18 13:42 39.859424 -104.679163 180 5439ft 0kts
15-Apr-18 13:43 39.859424 -104.679163 180 5439ft 0kts
15-Apr-18 13:44 39.859424 -104.679163 180 5439ft 0kts
15-Apr-18 13:45 39.859424 -104.679163 180 5439ft 0kts
15-Apr-18 13:46 39.859424 -104.679163 180 5439ft 0kts
15-Apr-18 13:47 39.859424 -104.679163 180 5439ft 0kts
15-Apr-18 13:48 39.859424 -104.679163 180 5439ft 0kts
15-Apr-18 13:49 39.859424 -104.679163 180 5439ft 0kts
15-Apr-18 13:50 39.859424 -104.679163 180 5439ft 0kts
15-Apr-18 13:51 39.859424 -104.679163 180 5439ft 0kts
15-Apr-18 13:52 39.859424 -104.679163 180 5439ft 0kts
15-Apr-18 13:53 39.859424 -104.679163 180 5439ft 0kts
15-Apr-18 13:54 39.859424 -104.679163 180 5439ft 0kts
15-Apr-18 13:55 39.859424 -104.679163 180 5439ft 0kts
15-Apr-18 13:56 39.859424 -104.679163 180 5439ft 0kts
15-Apr-18 13:57 39.859424 -104.679163 180 5439ft 0kts
15-Apr-18 13:58 39.859424 -104.679163 180 5439ft 0kts
15-Apr-18 13:59 39.859424 -104.679163 180 5439ft 0kts
15-Apr-18 14:00 39.859840 -104.679058 209 5439ft 2kts
15-Apr-18 14:01 39.860204 -104.678155 268 5439ft 2kts
15-Apr-18 14:02 39.860204 -104.678132 268 5439ft 0kts
15-Apr-18 14:03 39.860204 -104.678132 268 5439ft 0kts
15-Apr-18 14:04 39.860204 -104.678132 268 5439ft 0kts
15-Apr-18 14:05 39.860204 -104.678132 268 5439ft 0kts
15-Apr-18 14:06 39.860204 -104.678132 268 5439ft 0kts
15-Apr-18 14:07 39.860201 -104.678461 268 5439ft 4kts
15-Apr-18 14:08 39.860506 -104.679534 324 5439ft 6kts
15-Apr-18 14:09 39.860320 -104.682854 270 5439ft 10kts
15-Apr-18 14:10 39.857742 -104.683936 180 5439ft 12kts
15-Apr-18 14:11 39.854839 -104.683982 183 5439ft 8kts
15-Apr-18 14:12 39.852509 -104.684015 179 5439ft 10kts
15-Apr-18 14:13 39.848655 -104.684044 181 5439ft 16kts
15-Apr-18 14:14 39.844702 -104.684146 180 5439ft 9kts
15-Apr-18 14:15 39.842656 -104.684175 180 5439ft 6kts
15-Apr-18 14:16 39.841848 -104.684187 180 5439ft 0kts
15-Apr-18 14:17 39.841847 -104.684187 180 5439ft 0kts
15-Apr-18 14:18 39.841845 -104.684187 180 5439ft 0kts
15-Apr-18 14:19 39.841844 -104.684187 180 5439ft 0kts
15-Apr-18 14:20 39.841843 -104.684187 180 5439ft 0kts
15-Apr-18 14:21 39.841724 -104.684188 180 5439ft 3kts
15-Apr-18 14:22 39.840663 -104.687012 270 5439ft 48kts
15-Apr-18 14:23 39.841540 -104.740424 271 6703ft 185kts
15-Apr-18 14:24 39.826318 -104.815016 252 8469ft 258kts
15-Apr-18 14:25 39.787935 -104.902908 221 10044ft 294kts
15-Apr-18 14:26 39.708395 -104.928723 175 11053ft 323kts
15-Apr-18 14:27 39.612353 -104.895351 158 13147ft 378kts
15-Apr-18 14:28 39.515995 -104.829312 153 15847ft 402kts
15-Apr-18 14:29 39.410799 -104.772557 164 18307ft 419kts
15-Apr-18 14:30 39.295176 -104.751161 183 20623ft 426kts
15-Apr-18 14:31 39.174250 -104.744815 183 22729ft 441kts
15-Apr-18 14:32 39.050511 -104.743900 197 24583ft 442kts
15-Apr-18 14:33 38.938501 -104.802200 214 26344ft 435kts
15-Apr-18 14:34 38.828697 -104.870870 214 27926ft 444kts
15-Apr-18 14:35 38.717060 -104.941401 217 29288ft 449kts
15-Apr-18 14:36 38.606896 -105.018275 217 30846ft 448kts
15-Apr-18 14:37 38.497928 -105.093566 217 32474ft 443kts
15-Apr-18 14:38 38.390207 -105.167863 217 33937ft 439kts
15-Apr-18 14:39 38.282953 -105.241559 217 35225ft 437kts
15-Apr-18 14:40 38.176318 -105.314473 216 36177ft 438kts
15-Apr-18 14:41 38.069061 -105.387537 216 36208ft 432kts
15-Apr-18 14:42 37.973780 -105.452380 216 36239ft 432kts
15-Apr-18 14:43 37.867844 -105.524113 216 36266ft 432kts
15-Apr-18 14:44 37.761530 -105.595736 216 36277ft 432kts
15-Apr-18 14:45 37.650571 -105.657586 208 36266ft 442kts
15-Apr-18 14:46 37.535374 -105.710811 209 36243ft 441kts
15-Apr-18 14:47 37.420034 -105.764627 209 36220ft 441kts
15-Apr-18 14:48 37.305084 -105.818553 209 36219ft 442kts
15-Apr-18 14:49 37.189469 -105.872586 209 36231ft 442kts
15-Apr-18 14:50 37.074507 -105.926111 209 36243ft 441kts
15-Apr-18 14:51 36.959606 -105.979464 209 36255ft 441kts
15-Apr-18 14:52 36.844566 -106.032766 209 36259ft 438kts
15-Apr-18 14:53 36.730745 -106.085177 209 35592ft 434kts
15-Apr-18 14:54 36.616559 -106.137146 208 33062ft 434kts
15-Apr-18 14:55 36.504649 -106.187043 208 31098ft 422kts
15-Apr-18 14:56 36.395653 -106.235459 208 29232ft 411kts
15-Apr-18 14:57 36.289697 -106.282355 208 28245ft 390kts
15-Apr-18 14:58 36.193652 -106.324614 209 27944ft 347kts
15-Apr-18 14:59 36.104153 -106.363937 209 27493ft 343kts
15-Apr-18 15:00 36.014317 -106.403768 209 26984ft 348kts
15-Apr-18 15:01 35.932010 -106.442734 209 26160ft 402kts
15-Apr-18 15:02 35.830541 -106.492367 209 23939ft 385kts
15-Apr-18 15:03 35.733234 -106.541307 209 21475ft 370kts
15-Apr-18 15:04 35.640332 -106.589977 209 19081ft 357kts
15-Apr-18 15:05 35.551061 -106.638853 209 16786ft 344kts
15-Apr-18 15:06 35.469284 -106.684355 209 15471ft 313kts
15-Apr-18 15:07 35.391331 -106.728817 209 13854ft 306kts
15-Apr-18 15:08 35.314763 -106.769230 188 12928ft 289kts
15-Apr-18 15:09 35.261856 -106.711450 92 11736ft 280kts
15-Apr-18 15:10 35.236255 -106.626576 121 9859ft 268kts
15-Apr-18 15:11 35.177723 -106.586937 170 8062ft 237kts
15-Apr-18 15:12 35.120775 -106.573255 166 6833ft 185kts
15-Apr-18 15:13 35.075027 -106.565440 204 6356ft 155kts
15-Apr-18 15:14 35.045023 -106.602929 224 5381ft 146kts
15-Apr-18 15:15 35.031417 -106.619568 225 5320ft 26kts
15-Apr-18 15:16 35.031031 -106.622071 41 5320ft 11kts
15-Apr-18 15:17 35.033457 -106.619084 44 5320ft 14kts
15-Apr-18 15:18 35.036777 -106.615105 45 5320ft 17kts
15-Apr-18 15:19 35.038493 -106.613839 5 5320ft 3kts
15-Apr-18 15:20 35.042432 -106.613572 4 5320ft 15kts
15-Apr-18 15:21 35.046008 -106.614139 272 5320ft 11kts
15-Apr-18 15:22 35.047013 -106.615572 0 5320ft 0kts
15-Apr-18 15:23 35.047013 -106.615572 0 5320ft 0kts
15-Apr-18 15:24 35.047013 -106.615572 0 5320ft 0kts
15-Apr-18 15:25 35.047013 -106.615572 0 5320ft 0kts
15-Apr-18 15:26 35.047013 -106.615572 0 5320ft 0kts
15-Apr-18 15:27 35.047013 -106.615572 0 5320ft 0kts
15-Apr-18 15:28 35.047013 -106.615572 0 5320ft 0kts
15-Apr-18 15:29 35.047013 -106.615572 0 5320ft 0kts

Navigation Log

Ident Type
Flight plan parsing failed, navigation log unavailable